createdAt,value
2022-09-21T00:00:47.350Z,101128.81
2022-09-21T00:03:13.631Z,101132.38
2022-09-21T00:05:39.887Z,101130.53
2022-09-21T00:08:06.134Z,101122.41
2022-09-21T00:10:32.412Z,101114.53
2022-09-21T00:12:58.991Z,101124.31
2022-09-21T00:15:25.239Z,101123.72
2022-09-21T00:17:51.490Z,101127.09
2022-09-21T00:20:17.734Z,101128.81
2022-09-21T00:22:44.097Z,101127.97
2022-09-21T00:25:10.352Z,101124.22
2022-09-21T00:27:36.611Z,101125.09
2022-09-21T00:30:03.247Z,101136.59
2022-09-21T00:32:31.253Z,101132.19
2022-09-21T00:34:57.524Z,101130.25
2022-09-21T00:37:23.771Z,101131.94
2022-09-21T00:39:50.028Z,101134.78
2022-09-21T00:42:16.299Z,101130.38
2022-09-21T00:44:42.556Z,101133.84
2022-09-21T00:47:09.031Z,101141.00
2022-09-21T00:49:35.318Z,101123.19
2022-09-21T00:52:02.031Z,101137.38
2022-09-21T00:54:28.277Z,101133.91
2022-09-21T00:56:54.539Z,101141.19
2022-09-21T00:59:21.936Z,101139.47
2022-09-21T01:01:49.051Z,101139.38
2022-09-21T01:04:15.354Z,101136.94
2022-09-21T01:06:41.639Z,101137.84
2022-09-21T01:09:07.891Z,101142.31
2022-09-21T01:11:34.421Z,101140.59
2022-09-21T01:14:00.703Z,101145.47
2022-09-21T01:16:27.037Z,101138.25
2022-09-21T01:18:53.336Z,101147.28
2022-09-21T01:21:19.772Z,101143.13
2022-09-21T01:23:46.038Z,101146.31
2022-09-21T01:26:12.291Z,101141.03
2022-09-21T01:28:38.559Z,101146.50
2022-09-21T01:31:05.927Z,101148.34
2022-09-21T01:33:32.210Z,101144.34
2022-09-21T01:35:58.635Z,101155.09
2022-09-21T01:38:24.920Z,101146.25
2022-09-21T01:40:51.187Z,101150.22
2022-09-21T01:43:17.450Z,101151.28
2022-09-21T01:45:43.720Z,101156.97
2022-09-21T01:48:10.811Z,101153.56
2022-09-21T01:50:36.982Z,101159.44
2022-09-21T01:53:03.240Z,101164.91
2022-09-21T01:55:29.655Z,101156.88
2022-09-21T01:57:55.902Z,101163.34
2022-09-21T02:00:22.168Z,101160.56
2022-09-21T02:02:48.421Z,101170.44
2022-09-21T02:05:16.364Z,101170.59
2022-09-21T02:07:42.627Z,101167.81
2022-09-21T02:10:08.878Z,101174.56
2022-09-21T02:12:35.131Z,101162.75
2022-09-21T02:15:01.379Z,101169.66
2022-09-21T02:17:27.634Z,101169.75
2022-09-21T02:19:54.329Z,101170.91
2022-09-21T02:22:20.897Z,101171.28
2022-09-21T02:24:47.190Z,101168.59
2022-09-21T02:27:13.467Z,101167.19
2022-09-21T02:29:39.719Z,101169.16
2022-09-21T02:32:06.227Z,101179.00
2022-09-21T02:34:33.385Z,101176.03
2022-09-21T02:36:59.570Z,101174.91
2022-09-21T02:39:25.821Z,101177.84
2022-09-21T02:41:52.066Z,101185.63
2022-09-21T02:44:18.791Z,101177.59
2022-09-21T02:46:45.129Z,101178.22
2022-09-21T02:49:11.415Z,101179.94
2022-09-21T02:51:37.656Z,101185.22
2022-09-21T02:54:03.898Z,101183.03
2022-09-21T02:56:30.155Z,101190.81
2022-09-21T02:58:56.820Z,101180.91
2022-09-21T03:01:23.117Z,101190.50
2022-09-21T03:03:49.365Z,101189.47
2022-09-21T03:06:15.620Z,101197.41
2022-09-21T03:08:41.874Z,101193.91
2022-09-21T03:11:08.127Z,101191.53
2022-09-21T03:13:34.567Z,101194.66
2022-09-21T03:16:00.868Z,101200.66
2022-09-21T03:18:27.142Z,101204.53
2022-09-21T03:20:53.399Z,101201.44
2022-09-21T03:23:19.679Z,101200.34
2022-09-21T03:25:46.105Z,101206.66
2022-09-21T03:28:13.390Z,101192.22
2022-09-21T03:30:39.666Z,101200.00
2022-09-21T03:33:06.319Z,101205.31
2022-09-21T03:35:33.942Z,101201.63
2022-09-21T03:38:00.200Z,101200.66
2022-09-21T03:40:29.498Z,101198.84
2022-09-21T03:42:55.951Z,101201.38
2022-09-21T03:45:22.225Z,101197.97
2022-09-21T03:47:48.494Z,101194.28
2022-09-21T03:50:14.741Z,101203.09
2022-09-21T03:52:40.999Z,101202.06
2022-09-21T03:55:07.252Z,101209.19
2022-09-21T03:57:34.307Z,101209.19
2022-09-21T04:00:00.554Z,101202.91
2022-09-21T04:02:27.181Z,101200.41
2022-09-21T04:04:53.441Z,101210.53
2022-09-21T04:07:19.715Z,101204.84
2022-09-21T04:09:45.967Z,101207.53
2022-09-21T04:12:12.282Z,101210.97
2022-09-21T04:14:38.537Z,101213.81
2022-09-21T04:17:04.847Z,101212.88
2022-09-21T04:19:31.123Z,101218.56
2022-09-21T04:21:57.541Z,101218.56
2022-09-21T04:24:23.798Z,101213.34
2022-09-21T04:26:50.152Z,101216.16
2022-09-21T04:29:16.443Z,101227.84
2022-09-21T04:31:42.717Z,101223.66
2022-09-21T04:34:08.964Z,101227.38
2022-09-21T04:36:36.803Z,101225.66
2022-09-21T04:39:03.222Z,101218.72
2022-09-21T04:41:29.492Z,101220.78
2022-09-21T04:43:55.753Z,101225.41
2022-09-21T04:46:22.183Z,101232.91
2022-09-21T04:48:48.483Z,101235.56
2022-09-21T04:51:14.752Z,101228.63
2022-09-21T04:53:42.010Z,101229.66
2022-09-21T04:56:08.260Z,101243.91
2022-09-21T04:58:34.514Z,101238.72
2022-09-21T05:01:00.795Z,101246.75
2022-09-21T05:03:27.101Z,101240.63
2022-09-21T05:05:56.556Z,101247.63
2022-09-21T05:08:42.863Z,101249.28
2022-09-21T05:11:09.779Z,101253.72
2022-09-21T05:13:36.040Z,101254.34
2022-09-21T05:16:02.451Z,101256.78
2022-09-21T05:18:29.433Z,101264.50
2022-09-21T05:20:56.044Z,101267.88
2022-09-21T05:23:22.294Z,101265.75
2022-09-21T05:25:48.542Z,101266.47
2022-09-21T05:28:14.799Z,101266.16
2022-09-21T05:30:56.109Z,101275.66
2022-09-21T05:33:27.275Z,101281.00
2022-09-21T05:35:54.081Z,101281.25
2022-09-21T05:38:20.601Z,101287.16
2022-09-21T05:40:50.253Z,101278.78
2022-09-21T05:43:16.511Z,101287.50
2022-09-21T05:45:47.277Z,101286.88
2022-09-21T05:48:14.129Z,101286.50
2022-09-21T05:50:40.387Z,101288.19
2022-09-21T05:53:06.629Z,101286.72
2022-09-21T05:55:32.891Z,101289.19
2022-09-21T05:57:59.246Z,101288.69
2022-09-21T06:00:25.547Z,101295.88
2022-09-21T06:02:51.816Z,101299.00
2022-09-21T06:05:18.073Z,101294.69
2022-09-21T06:07:44.357Z,101298.81
2022-09-21T06:10:10.610Z,101303.75
2022-09-21T06:12:36.899Z,101301.53
2022-09-21T06:15:03.216Z,101303.28
2022-09-21T06:17:29.481Z,101306.75
2022-09-21T06:19:55.822Z,101303.84
2022-09-21T06:22:22.062Z,101302.00
2022-09-21T06:24:48.476Z,101299.53
2022-09-21T06:27:14.733Z,101302.56
2022-09-21T06:29:40.991Z,101296.69
2022-09-21T06:32:07.251Z,101307.81
2022-09-21T06:34:36.645Z,101309.53
2022-09-21T06:37:03.247Z,101306.06
2022-09-21T06:39:29.518Z,101313.28
2022-09-21T06:41:56.365Z,101315.78
2022-09-21T06:44:22.611Z,101310.53
2022-09-21T06:46:48.865Z,101312.84
2022-09-21T06:49:15.140Z,101309.13
2022-09-21T06:51:41.391Z,101312.50
2022-09-21T06:54:07.691Z,101313.53
2022-09-21T06:56:34.043Z,101316.41
2022-09-21T06:59:00.326Z,101316.31
2022-09-21T07:01:26.661Z,101312.50
2022-09-21T07:03:53.977Z,101321.16
2022-09-21T07:06:20.374Z,101324.81
2022-09-21T07:11:32.930Z,101322.13
2022-09-21T07:13:59.742Z,101328.34
2022-09-21T07:16:26.114Z,101330.00
2022-09-21T07:18:52.419Z,101325.66
2022-09-21T07:21:18.680Z,101322.38
2022-09-21T07:23:45.027Z,101335.53
2022-09-21T07:26:11.283Z,101334.69
2022-09-21T07:28:37.537Z,101335.47
2022-09-21T07:31:03.798Z,101340.91
2022-09-21T07:33:36.017Z,101342.25
2022-09-21T07:36:03.942Z,101339.97
2022-09-21T07:38:30.196Z,101339.16
2022-09-21T07:40:56.464Z,101340.91
2022-09-21T07:43:22.730Z,101346.53
2022-09-21T07:45:49.111Z,101343.19
2022-09-21T07:48:15.380Z,101346.78
2022-09-21T07:50:42.015Z,101354.81
2022-09-21T07:53:08.282Z,101347.50
2022-09-21T07:55:34.604Z,101351.81
2022-09-21T07:58:19.616Z,101345.31
2022-09-21T08:00:45.998Z,101347.47
2022-09-21T08:03:12.772Z,101342.59
2022-09-21T08:05:39.032Z,101347.41
2022-09-21T08:08:05.278Z,101341.75
2022-09-21T08:10:32.721Z,101344.81
2022-09-21T08:12:59.062Z,101353.41
2022-09-21T08:15:47.565Z,101334.44
2022-09-21T08:18:11.883Z,101344.22
2022-09-21T08:20:38.757Z,101346.50
2022-09-21T08:23:04.999Z,101339.06
2022-09-21T08:25:31.475Z,101339.44
2022-09-21T08:27:58.157Z,101334.81
2022-09-21T08:30:27.857Z,101342.31
2022-09-21T08:32:54.192Z,101339.63
2022-09-21T08:35:20.471Z,101350.44
2022-09-21T08:37:46.722Z,101352.06
2022-09-21T08:40:15.076Z,101346.09
2022-09-21T08:42:41.414Z,101345.41
2022-09-21T08:45:10.022Z,101349.66
2022-09-21T08:47:36.294Z,101345.25
2022-09-21T08:50:02.550Z,101353.91
2022-09-21T08:52:28.831Z,101349.19
2022-09-21T08:54:55.085Z,101346.38
2022-09-21T08:57:21.456Z,101351.50
2022-09-21T08:59:47.757Z,101354.19
2022-09-21T09:02:14.210Z,101343.28
2022-09-21T09:04:40.564Z,101350.38
2022-09-21T09:07:06.839Z,101347.00
2022-09-21T09:09:33.099Z,101345.38
2022-09-21T09:11:59.368Z,101355.41
2022-09-21T09:14:25.940Z,101351.78
2022-09-21T09:16:52.204Z,101349.84
2022-09-21T09:19:18.457Z,101346.66
2022-09-21T09:21:44.731Z,101353.16
2022-09-21T09:24:11.021Z,101345.47
2022-09-21T09:26:37.466Z,101342.88
2022-09-21T09:29:03.727Z,101351.41
2022-09-21T09:31:30.170Z,101340.31
2022-09-21T09:33:56.912Z,101338.38
2022-09-21T09:36:46.549Z,101334.56
2022-09-21T09:39:11.862Z,101332.50
2022-09-21T09:41:38.150Z,101342.31
2022-09-21T09:44:04.410Z,101337.22
2022-09-21T09:46:31.249Z,101338.69
2022-09-21T09:48:57.671Z,101334.44
2022-09-21T09:51:23.928Z,101332.28
2022-09-21T09:53:50.571Z,101336.75
2022-09-21T09:56:16.819Z,101327.31
2022-09-21T09:58:43.071Z,101331.44
2022-09-21T10:01:09.330Z,101334.78
2022-09-21T10:03:36.134Z,101340.28
2022-09-21T10:06:02.386Z,101341.47
2022-09-21T10:08:28.746Z,101333.66
2022-09-21T10:10:55.007Z,101334.78
2022-09-21T10:13:21.250Z,101327.41
2022-09-21T10:15:47.732Z,101323.13
2022-09-21T10:18:14.021Z,101329.16
2022-09-21T10:20:40.283Z,101320.13
2022-09-21T10:23:06.554Z,101319.16
2022-09-21T10:25:36.855Z,101324.38
2022-09-21T10:28:05.979Z,101324.13
2022-09-21T10:30:32.315Z,101320.72
2022-09-21T10:32:58.566Z,101321.00
2022-09-21T10:35:25.092Z,101320.66
2022-09-21T10:37:54.370Z,101317.16
2022-09-21T10:40:20.785Z,101319.78
2022-09-21T10:42:47.113Z,101316.16
2022-09-21T10:45:14.507Z,101312.66
2022-09-21T10:47:40.805Z,101319.53
2022-09-21T10:50:07.055Z,101318.00
2022-09-21T10:52:33.311Z,101316.38
2022-09-21T10:54:59.566Z,101314.88
2022-09-21T10:57:25.893Z,101320.50
2022-09-21T10:59:52.181Z,101312.38
2022-09-21T11:02:18.487Z,101311.22
2022-09-21T11:04:44.787Z,101322.78
2022-09-21T11:07:11.062Z,101310.00
2022-09-21T11:09:37.325Z,101305.69
2022-09-21T11:12:04.315Z,101305.34
2022-09-21T11:14:30.575Z,101290.44
2022-09-21T11:16:56.849Z,101295.75
2022-09-21T11:19:23.095Z,101299.53
2022-09-21T11:21:49.344Z,101295.00
2022-09-21T11:24:15.594Z,101298.38
2022-09-21T11:29:13.359Z,101304.69
2022-09-21T11:31:39.683Z,101296.25
2022-09-21T11:34:06.046Z,101296.97
2022-09-21T11:36:32.449Z,101299.97
2022-09-21T11:38:58.701Z,101302.50
2022-09-21T11:41:24.976Z,101294.19
2022-09-21T11:43:51.315Z,101289.59
2022-09-21T11:46:17.660Z,101285.69
2022-09-21T11:48:43.955Z,101277.16
2022-09-21T11:51:10.208Z,101283.69
2022-09-21T11:53:37.004Z,101279.41
2022-09-21T11:56:03.536Z,101282.47
2022-09-21T11:58:29.843Z,101271.09
2022-09-21T12:00:58.194Z,101273.59
2022-09-21T12:03:24.471Z,101286.00
2022-09-21T12:05:50.824Z,101269.22
2022-09-21T12:08:17.116Z,101273.81
2022-09-21T12:10:43.458Z,101271.00
2022-09-21T12:13:09.741Z,101269.13
2022-09-21T12:15:36.003Z,101265.91
2022-09-21T12:18:02.262Z,101267.13
2022-09-21T12:20:28.539Z,101267.47
2022-09-21T12:22:54.803Z,101259.28
2022-09-21T12:25:21.418Z,101262.22
2022-09-21T12:27:47.680Z,101253.16
2022-09-21T12:30:13.963Z,101253.63
2022-09-21T12:32:40.224Z,101244.06
2022-09-21T12:35:06.629Z,101245.03
2022-09-21T12:37:32.882Z,101241.31
2022-09-21T12:39:59.238Z,101244.69
2022-09-21T12:42:25.558Z,101244.44
2022-09-21T12:44:52.221Z,101237.78
2022-09-21T12:47:18.706Z,101236.19
2022-09-21T12:49:44.969Z,101230.63
2022-09-21T12:52:11.227Z,101240.09
2022-09-21T12:54:37.925Z,101239.72
2022-09-21T12:57:23.487Z,101241.41
2022-09-21T12:59:50.564Z,101235.28
2022-09-21T13:02:17.353Z,101235.19
2022-09-21T13:04:43.736Z,101237.63
2022-09-21T13:07:09.993Z,101234.50
2022-09-21T13:09:36.242Z,101230.22
2022-09-21T13:12:04.247Z,101239.47
2022-09-21T13:14:30.414Z,101233.34
2022-09-21T13:16:57.617Z,101243.75
2022-09-21T13:19:23.867Z,101236.25
2022-09-21T13:21:50.302Z,101236.13
2022-09-21T13:24:16.590Z,101235.88
2022-09-21T13:26:42.849Z,101228.00
2022-09-21T13:29:09.684Z,101236.78
2022-09-21T13:31:40.893Z,101230.25
2022-09-21T13:34:08.900Z,101225.81
2022-09-21T13:36:35.250Z,101231.97
2022-09-21T13:39:01.507Z,101237.38
2022-09-21T13:41:45.533Z,101226.66
2022-09-21T13:44:14.026Z,101223.22
2022-09-21T13:46:40.283Z,101229.00
2022-09-21T13:49:06.546Z,101219.91
2022-09-21T13:51:33.237Z,101216.31
2022-09-21T13:54:00.463Z,101225.09
2022-09-21T13:56:26.710Z,101214.66
2022-09-21T13:58:52.987Z,101208.41
2022-09-21T14:01:45.076Z,101209.69
2022-09-21T14:04:06.559Z,101193.22
2022-09-21T14:06:35.108Z,101201.13
2022-09-21T14:09:01.376Z,101201.00
2022-09-21T14:11:28.001Z,101202.94
2022-09-21T14:13:54.480Z,101206.88
2022-09-21T14:16:20.843Z,101206.13
2022-09-21T14:18:47.323Z,101208.09
2022-09-21T14:21:22.387Z,101210.78
2022-09-21T14:23:48.637Z,101214.22
2022-09-21T14:26:14.895Z,101218.53
2022-09-21T14:28:41.166Z,101228.78
2022-09-21T14:31:07.464Z,101210.28
2022-09-21T14:33:33.767Z,101213.22
2022-09-21T14:36:01.755Z,101204.34
2022-09-21T14:38:28.165Z,101215.59
2022-09-21T14:40:54.421Z,101216.78
2022-09-21T14:43:23.664Z,101226.69
2022-09-21T14:45:50.320Z,101228.88
2022-09-21T14:48:16.584Z,101230.88
2022-09-21T14:50:43.060Z,101231.81
2022-09-21T14:53:09.470Z,101228.63
2022-09-21T14:55:35.718Z,101230.66
2022-09-21T14:58:01.983Z,101226.09
2022-09-21T15:00:28.247Z,101224.59
2022-09-21T15:02:54.677Z,101217.47
2022-09-21T15:05:20.941Z,101217.84
2022-09-21T15:08:06.155Z,101218.38
2022-09-21T15:10:54.528Z,101215.69
2022-09-21T15:13:21.795Z,101213.72
2022-09-21T15:15:48.133Z,101213.19
2022-09-21T15:18:20.267Z,101204.88
2022-09-21T15:20:48.163Z,101212.34
2022-09-21T15:23:14.464Z,101208.31
2022-09-21T15:25:40.725Z,101196.09
2022-09-21T15:28:07.392Z,101193.16
2022-09-21T15:30:33.675Z,101197.56
2022-09-21T15:32:59.942Z,101194.84
2022-09-21T15:35:27.680Z,101195.63
2022-09-21T15:37:53.964Z,101195.84
2022-09-21T15:40:20.614Z,101200.81
2022-09-21T15:42:46.935Z,101200.06
2022-09-21T15:45:13.186Z,101196.38
2022-09-21T15:47:42.178Z,101197.47
2022-09-21T15:50:09.167Z,101204.06
2022-09-21T15:52:36.089Z,101194.06
2022-09-21T15:55:02.783Z,101196.66
2022-09-21T15:57:29.043Z,101191.47
2022-09-21T15:59:56.078Z,101201.44
2022-09-21T16:02:22.268Z,101196.78
2022-09-21T16:04:52.456Z,101204.00
2022-09-21T16:07:18.710Z,101199.69
2022-09-21T16:09:47.923Z,101197.94
2022-09-21T16:12:14.240Z,101200.09
2022-09-21T16:14:55.908Z,101208.84
2022-09-21T16:17:22.295Z,101199.09
2022-09-21T16:19:49.609Z,101201.50
2022-09-21T16:22:15.885Z,101205.88
2022-09-21T16:24:42.163Z,101204.97
2022-09-21T16:27:08.405Z,101204.88
2022-09-21T16:29:34.677Z,101210.91
2022-09-21T16:32:00.997Z,101202.59
2022-09-21T16:34:27.293Z,101208.97
2022-09-21T16:36:54.626Z,101205.50
2022-09-21T16:39:22.642Z,101208.31
2022-09-21T16:41:48.903Z,101208.53
2022-09-21T16:44:19.625Z,101208.63
2022-09-21T16:46:46.121Z,101209.09
2022-09-21T16:49:15.346Z,101207.75
2022-09-21T16:51:41.618Z,101205.72
2022-09-21T16:54:08.474Z,101209.72
2022-09-21T16:56:34.910Z,101209.25
2022-09-21T16:59:03.863Z,101216.16
2022-09-21T17:01:30.153Z,101216.25
2022-09-21T17:03:56.718Z,101216.38
2022-09-21T17:06:22.970Z,101213.41
2022-09-21T17:08:49.282Z,101216.09
2022-09-21T17:11:19.717Z,101222.44
2022-09-21T17:13:45.988Z,101214.66
2022-09-21T17:16:12.284Z,101212.41
2022-09-21T17:18:38.937Z,101214.50
2022-09-21T17:21:05.241Z,101214.72
2022-09-21T17:23:31.523Z,101212.34
2022-09-21T17:25:57.822Z,101211.38
2022-09-21T17:28:25.942Z,101217.47
2022-09-21T17:30:52.185Z,101214.78
2022-09-21T17:33:19.801Z,101212.28
2022-09-21T17:35:46.061Z,101216.91
2022-09-21T17:38:14.526Z,101219.72
2022-09-21T17:40:42.780Z,101211.91
2022-09-21T17:43:11.878Z,101220.47
2022-09-21T17:45:38.712Z,101229.00
2022-09-21T17:48:04.971Z,101229.47
2022-09-21T17:50:31.490Z,101232.06
2022-09-21T17:53:16.258Z,101225.91
2022-09-21T17:55:42.506Z,101232.16
2022-09-21T17:58:09.812Z,101229.38
2022-09-21T18:00:36.077Z,101227.94
2022-09-21T18:03:02.699Z,101226.59
2022-09-21T18:05:29.086Z,101238.03
2022-09-21T18:07:55.336Z,101228.00
2022-09-21T18:10:21.580Z,101240.81
2022-09-21T18:12:48.757Z,101239.06
2022-09-21T18:15:15.592Z,101240.34
2022-09-21T18:17:41.838Z,101236.41
2022-09-21T18:20:08.168Z,101246.16
2022-09-21T18:22:37.260Z,101240.72
2022-09-21T18:25:03.530Z,101246.59
2022-09-21T18:27:32.942Z,101250.91
2022-09-21T18:29:59.202Z,101250.03
2022-09-21T18:32:25.462Z,101248.56
2022-09-21T18:34:51.958Z,101255.38
2022-09-21T18:37:18.661Z,101258.66
2022-09-21T18:39:44.917Z,101259.91
2022-09-21T18:42:11.175Z,101256.44
2022-09-21T18:44:37.433Z,101260.25
2022-09-21T18:47:03.845Z,101259.38
2022-09-21T18:49:31.322Z,101263.28
2022-09-21T18:51:57.859Z,101255.72
2022-09-21T18:54:24.215Z,101255.72
2022-09-21T18:56:50.489Z,101268.78
2022-09-21T18:59:17.187Z,101265.41
2022-09-21T19:01:43.568Z,101265.47
2022-09-21T19:04:09.896Z,101259.25
2022-09-21T19:06:37.472Z,101264.81
2022-09-21T19:09:03.748Z,101264.91
2022-09-21T19:11:32.094Z,101266.88
2022-09-21T19:13:58.342Z,101257.03
2022-09-21T19:16:24.623Z,101254.75
2022-09-21T19:18:51.504Z,101251.38
2022-09-21T19:21:17.759Z,101261.50
2022-09-21T19:23:44.009Z,101252.69
2022-09-21T19:26:12.018Z,101256.69
2022-09-21T19:28:41.596Z,101251.31
2022-09-21T19:31:07.860Z,101261.91
2022-09-21T19:33:51.014Z,101268.34
2022-09-21T19:36:17.705Z,101258.78
2022-09-21T19:38:43.992Z,101261.06
2022-09-21T19:41:10.307Z,101263.31
2022-09-21T19:43:36.569Z,101262.72
2022-09-21T19:46:04.951Z,101258.88
2022-09-21T19:48:31.279Z,101262.53
2022-09-21T19:50:58.794Z,101259.50
2022-09-21T19:53:43.849Z,101260.88
2022-09-21T19:56:28.577Z,101261.81
2022-09-21T19:59:13.346Z,101258.28
2022-09-21T20:01:42.087Z,101261.91
2022-09-21T20:04:08.386Z,101264.34
2022-09-21T20:06:35.554Z,101266.03
2022-09-21T20:09:03.087Z,101258.88
2022-09-21T20:11:29.679Z,101253.75
2022-09-21T20:13:56.338Z,101253.34
2022-09-21T20:16:22.972Z,101264.75
2022-09-21T20:18:49.879Z,101260.16
2022-09-21T20:21:16.236Z,101257.41
2022-09-21T20:23:42.482Z,101261.91
2022-09-21T20:26:08.745Z,101255.84
2022-09-21T20:28:35.879Z,101256.56
2022-09-21T20:31:02.131Z,101256.81
2022-09-21T20:33:28.432Z,101258.53
2022-09-21T20:35:55.812Z,101258.53
2022-09-21T20:38:23.009Z,101259.50
2022-09-21T20:40:49.233Z,101256.28
2022-09-21T20:43:15.852Z,101258.78
2022-09-21T20:45:48.006Z,101257.06
2022-09-21T20:48:14.435Z,101255.16
2022-09-21T20:50:40.688Z,101257.59
2022-09-21T20:53:07.735Z,101258.25
2022-09-21T20:55:33.991Z,101256.09
2022-09-21T21:00:53.048Z,101258.63
2022-09-21T21:03:21.476Z,101262.78
2022-09-21T21:05:47.740Z,101249.41
2022-09-21T21:08:13.990Z,101256.41
2022-09-21T21:10:40.379Z,101259.88
2022-09-21T21:13:06.626Z,101250.91
2022-09-21T21:15:32.902Z,101257.31
2022-09-21T21:17:59.159Z,101262.50
2022-09-21T21:20:25.646Z,101260.66
2022-09-21T21:22:51.994Z,101258.94
2022-09-21T21:25:18.281Z,101255.66
2022-09-21T21:27:44.544Z,101253.06
2022-09-21T21:30:11.256Z,101250.28
2022-09-21T21:32:37.531Z,101253.06
2022-09-21T21:35:03.819Z,101257.19
2022-09-21T21:37:30.071Z,101244.56
2022-09-21T21:39:56.907Z,101239.47
2022-09-21T21:42:24.729Z,101231.41
2022-09-21T21:44:51.035Z,101244.75
2022-09-21T21:50:03.706Z,101238.59
2022-09-21T21:52:30.309Z,101242.84
2022-09-21T21:54:56.591Z,101242.84
2022-09-21T21:57:22.842Z,101245.34
2022-09-21T21:59:49.096Z,101239.84
2022-09-21T22:02:15.644Z,101241.56
2022-09-21T22:04:42.091Z,101232.53
2022-09-21T22:07:08.360Z,101236.53
2022-09-21T22:09:34.620Z,101231.16
2022-09-21T22:12:01.851Z,101226.56
2022-09-21T22:14:28.247Z,101232.91
2022-09-21T22:16:54.616Z,101223.88
2022-09-21T22:19:20.975Z,101222.94
2022-09-21T22:21:51.721Z,101229.31
2022-09-21T22:24:21.066Z,101228.41
2022-09-21T22:26:48.436Z,101225.78
2022-09-21T22:29:14.727Z,101225.78
2022-09-21T22:31:41.187Z,101226.16
2022-09-21T22:34:08.970Z,101226.03
2022-09-21T22:36:35.312Z,101225.38
2022-09-21T22:39:01.630Z,101232.44
2022-09-21T22:41:27.883Z,101233.22
2022-09-21T22:43:54.139Z,101226.91
2022-09-21T22:46:20.398Z,101228.84
2022-09-21T22:48:46.827Z,101228.97
2022-09-21T22:51:13.081Z,101223.63
2022-09-21T22:53:39.330Z,101219.22
2022-09-21T22:56:05.578Z,101216.34
2022-09-21T22:58:31.851Z,101228.84
2022-09-21T23:00:58.116Z,101228.03
2022-09-21T23:03:24.391Z,101229.22
2022-09-21T23:05:50.637Z,101232.69
2022-09-21T23:08:16.895Z,101220.06
2022-09-21T23:10:43.155Z,101222.94
2022-09-21T23:13:09.396Z,101228.19
2022-09-21T23:15:35.663Z,101233.47
2022-09-21T23:18:02.052Z,101228.84
2022-09-21T23:20:28.310Z,101228.31
2022-09-21T23:22:54.596Z,101227.09
2022-09-21T23:25:20.883Z,101230.88
2022-09-21T23:27:47.135Z,101233.41
2022-09-21T23:30:13.404Z,101223.47
2022-09-21T23:32:39.646Z,101229.69
2022-09-21T23:35:05.899Z,101219.75
2022-09-21T23:37:32.158Z,101224.63
2022-09-21T23:39:58.734Z,101223.94
2022-09-21T23:42:24.974Z,101222.72
2022-09-21T23:44:51.231Z,101229.81
2022-09-21T23:47:17.487Z,101233.09
2022-09-21T23:49:43.744Z,101238.56
2022-09-21T23:52:10.009Z,101226.63
2022-09-21T23:54:36.602Z,101224.72
2022-09-21T23:57:02.918Z,101216.59
2022-09-21T23:59:29.171Z,101212.09
